createdAt,value
2022-08-23T00:00:37.111Z,6.1
2022-08-23T00:02:36.554Z,6.2
2022-08-23T00:04:38.912Z,6.3
2022-08-23T00:06:36.508Z,5.6
2022-08-23T00:08:37.411Z,6.2
2022-08-23T00:10:35.410Z,6.5
2022-08-23T00:12:36.980Z,6.2
2022-08-23T00:14:38.899Z,7.2
2022-08-23T00:16:36.206Z,7.1
2022-08-23T00:18:35.000Z,7.0
2022-08-23T00:20:35.018Z,7.7
2022-08-23T00:22:35.595Z,6.3
2022-08-23T00:24:39.254Z,8.0
2022-08-23T00:26:48.608Z,6.6
2022-08-23T00:28:34.808Z,6.9
2022-08-23T00:30:35.448Z,6.7
2022-08-23T00:32:37.245Z,6.9
2022-08-23T00:38:35.111Z,7.1
2022-08-23T00:40:33.603Z,8.0
2022-08-23T00:42:50.374Z,7.7
2022-08-23T00:44:43.362Z,7.8
2022-08-23T00:46:51.953Z,7.3
2022-08-23T00:48:34.076Z,7.5
2022-08-23T00:50:39.341Z,7.8
2022-08-23T00:52:39.296Z,8.3
2022-08-23T00:54:35.531Z,8.5
2022-08-23T00:56:34.768Z,8.3
2022-08-23T00:58:33.116Z,9.1
2022-08-23T01:00:33.303Z,9.2
2022-08-23T01:02:33.347Z,9.4
2022-08-23T01:04:38.107Z,9.0
2022-08-23T01:06:37.230Z,9.5
2022-08-23T01:08:34.547Z,10.0
2022-08-23T01:10:38.609Z,9.9
2022-08-23T01:12:39.421Z,9.7
2022-08-23T01:14:34.956Z,9.5
2022-08-23T01:16:37.507Z,10.4
2022-08-23T01:18:33.271Z,9.4
2022-08-23T01:20:37.384Z,9.3
2022-08-23T01:26:34.250Z,9.9
2022-08-23T01:28:32.591Z,8.3
2022-08-23T01:30:33.091Z,9.3
2022-08-23T01:32:32.434Z,8.6
2022-08-23T01:34:30.725Z,8.0
2022-08-23T01:36:30.847Z,8.3
2022-08-23T01:38:32.803Z,8.5
2022-08-23T01:40:31.490Z,7.9
2022-08-23T01:42:30.420Z,8.2
2022-08-23T01:44:31.150Z,7.8
2022-08-23T01:46:30.281Z,8.3
2022-08-23T01:50:30.277Z,8.0
2022-08-23T01:54:30.037Z,7.0
2022-08-23T01:56:38.780Z,7.2
2022-08-23T01:58:31.229Z,7.8
2022-08-23T02:00:32.091Z,7.9
2022-08-23T02:02:29.520Z,8.2
2022-08-23T02:04:30.468Z,7.4
2022-08-23T02:06:30.228Z,7.2
2022-08-23T02:08:39.092Z,8.0
2022-08-23T02:10:28.938Z,8.2
2022-08-23T02:12:29.340Z,7.8
2022-08-23T02:14:28.827Z,8.5
2022-08-23T02:18:28.736Z,8.0
2022-08-23T02:20:28.312Z,8.3
2022-08-23T02:24:30.299Z,8.7
2022-08-23T02:26:30.692Z,8.5
2022-08-23T02:28:27.856Z,8.6
2022-08-23T02:30:27.865Z,9.0
2022-08-23T02:32:28.284Z,7.8
2022-08-23T02:34:28.074Z,7.4
2022-08-23T02:36:28.248Z,8.2
2022-08-23T02:40:27.494Z,7.6
2022-08-23T02:42:27.566Z,7.7
2022-08-23T02:44:27.466Z,8.1
2022-08-23T02:46:27.744Z,7.8
2022-08-23T02:48:26.991Z,7.0
2022-08-23T02:50:27.476Z,8.0
2022-08-23T02:52:27.026Z,8.1
2022-08-23T02:54:26.962Z,7.5
2022-08-23T02:56:27.256Z,8.5
2022-08-23T02:58:27.026Z,7.7
2022-08-23T03:00:27.763Z,8.0
2022-08-23T03:02:26.818Z,7.3
2022-08-23T03:04:26.733Z,7.2
2022-08-23T03:06:26.928Z,6.7
2022-08-23T03:08:26.588Z,6.1
2022-08-23T03:10:26.103Z,6.8
2022-08-23T03:12:26.892Z,6.4
2022-08-23T03:14:26.771Z,6.3
2022-08-23T03:16:26.774Z,6.2
2022-08-23T03:18:25.513Z,6.9
2022-08-23T03:20:25.372Z,6.3
2022-08-23T03:24:26.296Z,6.1
2022-08-23T03:26:25.162Z,6.6
2022-08-23T03:28:25.435Z,8.0
2022-08-23T03:30:24.908Z,8.3
2022-08-23T03:32:25.295Z,8.5
2022-08-23T03:34:24.756Z,8.0
2022-08-23T03:36:27.832Z,8.2
2022-08-23T03:38:24.600Z,8.0
2022-08-23T03:40:24.417Z,8.8
2022-08-23T03:42:24.245Z,9.0
2022-08-23T03:44:25.244Z,9.1
2022-08-23T03:48:24.195Z,8.5
2022-08-23T03:50:24.207Z,8.8
2022-08-23T03:52:23.867Z,9.1
2022-08-23T03:54:24.083Z,8.8
2022-08-23T03:56:24.855Z,9.8
2022-08-23T03:58:24.763Z,9.1
2022-08-23T04:00:23.025Z,9.8
2022-08-23T04:02:23.289Z,8.4
2022-08-23T04:04:23.056Z,9.7
2022-08-23T04:06:23.466Z,9.1
2022-08-23T04:08:28.082Z,9.7
2022-08-23T04:10:22.419Z,10.4
2022-08-23T04:12:22.963Z,10.0
2022-08-23T04:14:23.340Z,9.6
2022-08-23T04:16:22.125Z,9.9
2022-08-23T04:18:22.240Z,9.4
2022-08-23T04:20:21.542Z,9.5
2022-08-23T04:22:22.213Z,9.2
2022-08-23T04:24:21.498Z,9.4
2022-08-23T04:26:21.664Z,9.7
2022-08-23T04:28:22.038Z,9.2
2022-08-23T04:30:21.015Z,10.0
2022-08-23T04:32:26.683Z,9.7
2022-08-23T04:34:20.943Z,9.4
2022-08-23T04:38:24.589Z,9.9
2022-08-23T04:40:30.679Z,10.1
2022-08-23T04:42:22.207Z,9.1
2022-08-23T04:44:20.506Z,9.5
2022-08-23T04:46:19.860Z,9.3
2022-08-23T04:52:19.869Z,8.6
2022-08-23T04:54:22.485Z,9.0
2022-08-23T04:58:19.292Z,8.6
2022-08-23T05:00:19.568Z,9.0
2022-08-23T05:02:19.558Z,9.4
2022-08-23T05:04:18.591Z,9.3
2022-08-23T05:06:19.542Z,9.5
2022-08-23T05:08:18.360Z,9.6
2022-08-23T05:10:18.699Z,9.4
2022-08-23T05:12:17.890Z,8.6
2022-08-23T05:14:17.930Z,8.9
2022-08-23T05:16:17.856Z,8.8
2022-08-23T05:18:18.038Z,9.2
2022-08-23T05:20:17.843Z,9.1
2022-08-23T05:22:17.791Z,9.3
2022-08-23T05:24:17.152Z,8.9
2022-08-23T05:28:19.911Z,8.6
2022-08-23T05:30:16.891Z,9.1
2022-08-23T05:32:16.882Z,9.6
2022-08-23T05:34:16.753Z,8.5
2022-08-23T05:36:18.292Z,8.7
2022-08-23T05:38:20.648Z,8.9
2022-08-23T05:40:16.332Z,9.0
2022-08-23T05:42:16.325Z,8.5
2022-08-23T05:44:16.053Z,9.0
2022-08-23T05:46:19.883Z,8.7
2022-08-23T05:48:15.825Z,8.6
2022-08-23T05:50:16.183Z,8.1
2022-08-23T05:52:15.935Z,7.9
2022-08-23T05:54:15.794Z,8.7
2022-08-23T05:56:18.359Z,9.2
2022-08-23T05:58:16.010Z,9.5
2022-08-23T06:00:15.446Z,9.2
2022-08-23T06:02:15.105Z,8.6
2022-08-23T06:04:15.704Z,9.0
2022-08-23T06:06:16.587Z,9.1
2022-08-23T06:10:16.009Z,8.2
2022-08-23T06:12:14.854Z,9.1
2022-08-23T06:14:15.244Z,8.9
2022-08-23T06:16:17.145Z,9.0
2022-08-23T06:18:14.369Z,8.9
2022-08-23T06:20:15.097Z,9.2
2022-08-23T06:22:14.423Z,8.8
2022-08-23T06:26:17.751Z,8.6
2022-08-23T06:28:15.065Z,8.9
2022-08-23T06:30:13.966Z,8.7
2022-08-23T06:32:13.935Z,8.0
2022-08-23T06:34:18.137Z,8.3
2022-08-23T06:36:14.130Z,7.6
2022-08-23T06:42:37.447Z,7.3
2022-08-23T06:44:13.574Z,7.4
2022-08-23T06:46:19.130Z,7.7
2022-08-23T06:48:18.287Z,7.6
2022-08-23T06:50:13.235Z,6.7
2022-08-23T06:52:13.286Z,7.0
2022-08-23T06:54:15.183Z,6.6
2022-08-23T06:56:13.317Z,5.5
2022-08-23T06:58:13.372Z,5.6
2022-08-23T07:00:13.900Z,5.8
2022-08-23T07:04:15.095Z,5.5
2022-08-23T07:06:13.404Z,6.1
2022-08-23T07:10:13.990Z,5.8
2022-08-23T07:12:13.457Z,5.5
2022-08-23T07:14:15.697Z,5.4
2022-08-23T07:16:13.324Z,5.2
2022-08-23T07:18:13.448Z,5.5
2022-08-23T07:20:12.700Z,4.9
2022-08-23T07:22:15.317Z,5.0
2022-08-23T07:24:13.034Z,5.1
2022-08-23T07:26:14.968Z,4.4
2022-08-23T07:28:13.750Z,4.1
2022-08-23T07:30:13.526Z,4.4
2022-08-23T07:32:12.744Z,3.5
2022-08-23T07:34:15.588Z,4.0
2022-08-23T07:36:15.516Z,3.2
2022-08-23T07:38:12.852Z,3.5
2022-08-23T07:40:20.352Z,3.0
2022-08-23T07:44:16.797Z,2.8
2022-08-23T07:46:13.656Z,2.9
2022-08-23T07:48:14.271Z,3.0
2022-08-23T07:50:13.007Z,2.6
2022-08-23T07:54:13.749Z,2.7
2022-08-23T07:56:16.372Z,2.6
2022-08-23T07:58:13.183Z,2.3
2022-08-23T08:00:14.469Z,2.6
2022-08-23T08:02:13.415Z,2.5
2022-08-23T08:06:18.293Z,2.2
2022-08-23T08:08:13.833Z,2.7
2022-08-23T08:10:13.347Z,2.6
2022-08-23T08:14:15.725Z,2.4
2022-08-23T08:16:21.674Z,1.9
2022-08-23T08:18:14.288Z,2.1
2022-08-23T08:20:14.540Z,2.2
2022-08-23T08:22:13.880Z,1.8
2022-08-23T08:24:16.301Z,2.2
2022-08-23T08:26:13.997Z,1.8
2022-08-23T08:28:16.057Z,1.9
2022-08-23T08:30:14.158Z,2.0
2022-08-23T08:36:28.760Z,1.7
2022-08-23T08:38:14.421Z,1.5
2022-08-23T08:40:22.937Z,1.9
2022-08-23T08:42:32.616Z,1.8
2022-08-23T08:46:23.493Z,1.9
2022-08-23T08:48:20.526Z,1.8
2022-08-23T08:50:19.852Z,2.0
2022-08-23T08:52:20.161Z,1.5
2022-08-23T08:54:20.746Z,1.3
2022-08-23T08:56:32.441Z,1.7
2022-08-23T08:58:20.613Z,1.8
2022-08-23T09:00:19.898Z,1.6
2022-08-23T09:02:18.320Z,1.4
2022-08-23T09:04:16.319Z,1.9
2022-08-23T09:06:22.356Z,2.0
2022-08-23T09:08:35.275Z,1.9
2022-08-23T09:10:33.715Z,1.7
2022-08-23T09:14:37.161Z,1.9
2022-08-23T09:16:28.868Z,1.5
2022-08-23T09:18:17.328Z,1.6
2022-08-23T09:20:19.668Z,1.7
2022-08-23T09:22:24.111Z,1.5
2022-08-23T09:24:17.471Z,1.4
2022-08-23T09:26:22.304Z,1.6
2022-08-23T09:28:17.939Z,1.5
2022-08-23T09:32:27.877Z,1.6
2022-08-23T09:34:20.585Z,1.4
2022-08-23T09:36:22.472Z,1.7
2022-08-23T09:40:24.743Z,1.5
2022-08-23T09:44:31.954Z,1.6
2022-08-23T09:46:26.564Z,1.5
2022-08-23T09:48:33.077Z,1.4
2022-08-23T09:50:25.645Z,1.5
2022-08-23T09:52:24.303Z,1.7
2022-08-23T09:54:22.784Z,1.5
2022-08-23T10:00:24.994Z,1.4
2022-08-23T10:02:27.212Z,1.3
2022-08-23T10:04:23.606Z,1.4
2022-08-23T10:08:24.832Z,1.5
2022-08-23T10:10:27.256Z,1.3
2022-08-23T10:12:22.968Z,1.2
2022-08-23T10:14:23.454Z,1.4
2022-08-23T10:16:31.060Z,1.3
2022-08-23T10:18:34.318Z,1.1
2022-08-23T10:20:31.352Z,1.4
2022-08-23T10:22:25.232Z,1.5
2022-08-23T10:24:30.171Z,1.3
2022-08-23T10:28:41.801Z,1.5
2022-08-23T10:30:28.237Z,1.4
2022-08-23T10:32:34.126Z,1.8
2022-08-23T10:36:30.665Z,1.3
2022-08-23T10:38:37.707Z,1.4
2022-08-23T10:44:34.347Z,1.8
2022-08-23T10:46:29.329Z,1.3
2022-08-23T10:48:28.653Z,1.1
2022-08-23T10:50:26.828Z,1.0
2022-08-23T10:54:34.749Z,1.1
2022-08-23T10:56:27.238Z,1.3
2022-08-23T10:58:27.437Z,1.6
2022-08-23T11:02:34.651Z,1.3
2022-08-23T11:06:43.558Z,1.0
2022-08-23T11:08:32.634Z,1.3
2022-08-23T11:10:32.786Z,1.2
2022-08-23T11:12:30.432Z,1.5
2022-08-23T11:14:35.601Z,1.1
2022-08-23T11:16:30.310Z,1.5
2022-08-23T11:20:47.665Z,1.1
2022-08-23T11:22:31.080Z,1.0
2022-08-23T11:24:43.955Z,1.3
2022-08-23T11:26:48.405Z,1.1
2022-08-23T11:30:45.308Z,1.3
2022-08-23T11:32:37.651Z,1.1
2022-08-23T11:34:39.999Z,1.4
2022-08-23T11:38:50.287Z,1.2
2022-08-23T11:42:45.969Z,1.8
2022-08-23T11:46:34.062Z,1.7
2022-08-23T11:48:38.519Z,1.6
2022-08-23T11:50:42.450Z,1.3
2022-08-23T11:52:52.279Z,1.5
2022-08-23T11:54:45.686Z,1.3
2022-08-23T11:56:47.367Z,1.2
2022-08-23T11:58:52.697Z,1.5
2022-08-23T12:00:52.763Z,1.4
2022-08-23T12:02:47.037Z,1.5
2022-08-23T12:04:38.133Z,1.7
2022-08-23T12:06:39.191Z,1.5
2022-08-23T12:10:54.429Z,1.3
2022-08-23T12:12:40.029Z,1.4
2022-08-23T12:14:49.759Z,1.3
2022-08-23T12:16:37.925Z,1.2
2022-08-23T12:18:41.507Z,1.1
2022-08-23T12:22:55.807Z,1.0
2022-08-23T12:24:43.571Z,1.1
2022-08-23T12:26:44.914Z,1.0
2022-08-23T12:28:44.555Z,0.9
2022-08-23T12:32:45.109Z,1.0
2022-08-23T12:34:49.764Z,1.1
2022-08-23T12:38:47.039Z,1.3
2022-08-23T12:40:43.550Z,1.0
2022-08-23T12:42:40.502Z,0.9
2022-08-23T12:44:39.017Z,1.0
2022-08-23T12:46:41.922Z,1.1
2022-08-23T12:48:46.033Z,1.0
2022-08-23T12:50:42.584Z,1.1
2022-08-23T12:52:41.314Z,1.0
2022-08-23T12:54:43.545Z,1.1
2022-08-23T12:56:44.546Z,0.8
2022-08-23T12:58:47.219Z,1.0
2022-08-23T13:02:46.826Z,1.1
2022-08-23T13:04:43.223Z,0.9
2022-08-23T13:06:47.709Z,1.0
2022-08-23T13:10:44.113Z,0.9
2022-08-23T13:12:43.144Z,0.8
2022-08-23T13:16:44.255Z,1.0
2022-08-23T13:22:55.949Z,1.1
2022-08-23T13:25:24.724Z,1.0
2022-08-23T13:26:46.117Z,0.9
2022-08-23T13:29:04.725Z,1.0
2022-08-23T13:30:58.250Z,0.7
2022-08-23T13:36:47.996Z,0.8
2022-08-23T13:40:55.082Z,0.7
2022-08-23T13:42:51.729Z,0.8
2022-08-23T13:46:47.858Z,1.0
2022-08-23T13:48:53.127Z,1.3
2022-08-23T13:50:47.982Z,0.7
2022-08-23T13:54:52.525Z,0.7
2022-08-23T13:56:51.359Z,0.5
2022-08-23T13:58:54.918Z,0.6
2022-08-23T14:00:55.414Z,0.7
2022-08-23T14:02:50.236Z,0.6
2022-08-23T14:06:50.748Z,0.9
2022-08-23T14:08:51.155Z,0.7
2022-08-23T14:10:51.378Z,0.6
2022-08-23T14:14:51.500Z,1.2
2022-08-23T14:16:53.343Z,1.0
2022-08-23T14:19:54.290Z,0.6
2022-08-23T14:20:52.055Z,0.7
2022-08-23T14:24:52.835Z,0.5
2022-08-23T14:26:54.525Z,0.7
2022-08-23T14:30:53.969Z,0.5
2022-08-23T14:32:53.974Z,0.6
2022-08-23T14:34:54.093Z,0.7
2022-08-23T14:38:54.739Z,0.6
2022-08-23T14:40:58.616Z,0.8
2022-08-23T14:42:55.446Z,0.7
2022-08-23T14:44:56.083Z,0.8
2022-08-23T14:46:56.407Z,0.7
2022-08-23T14:48:57.046Z,0.6
2022-08-23T14:50:57.360Z,0.7
2022-08-23T14:56:57.926Z,0.6
2022-08-23T14:58:58.648Z,0.7
2022-08-23T15:02:58.661Z,0.8
2022-08-23T15:04:58.454Z,0.7
2022-08-23T15:07:17.321Z,0.6
2022-08-23T15:09:00.681Z,0.7
2022-08-23T15:13:14.262Z,0.7
2022-08-23T15:14:59.957Z,0.6
2022-08-23T15:17:02.315Z,0.7
2022-08-23T15:19:00.653Z,0.8
2022-08-23T15:25:01.476Z,0.7
2022-08-23T15:27:06.256Z,0.8
2022-08-23T15:29:02.511Z,0.7
2022-08-23T15:31:03.754Z,0.8
2022-08-23T15:37:03.309Z,0.9
2022-08-23T15:41:04.718Z,0.8
2022-08-23T15:47:17.902Z,0.9
2022-08-23T15:51:06.072Z,1.0
2022-08-23T15:53:05.786Z,0.8
2022-08-23T15:57:06.564Z,1.0
2022-08-23T16:01:08.853Z,0.9
2022-08-23T16:03:18.792Z,1.1
2022-08-23T16:05:08.549Z,1.0
2022-08-23T16:07:11.991Z,0.9
2022-08-23T16:09:14.128Z,1.0
2022-08-23T16:11:11.247Z,0.9
2022-08-23T16:15:09.334Z,1.0
2022-08-23T16:19:09.131Z,0.9
2022-08-23T16:21:09.565Z,0.8
2022-08-23T16:29:12.456Z,0.9
2022-08-23T16:31:11.169Z,0.7
2022-08-23T16:33:10.539Z,0.9
2022-08-23T16:35:10.846Z,0.7
2022-08-23T16:37:10.940Z,1.0
2022-08-23T16:39:12.024Z,0.9
2022-08-23T16:41:12.538Z,0.8
2022-08-23T16:43:11.620Z,0.7
2022-08-23T16:47:13.741Z,0.9
2022-08-23T16:49:14.970Z,1.1
2022-08-23T16:51:12.774Z,0.8
2022-08-23T16:53:14.504Z,0.9
2022-08-23T16:55:13.397Z,0.8
2022-08-23T16:57:15.413Z,0.7
2022-08-23T16:59:13.491Z,0.8
2022-08-23T17:01:14.531Z,0.9
2022-08-23T17:03:14.501Z,1.0
2022-08-23T17:05:16.825Z,0.9
2022-08-23T17:07:14.869Z,1.0
2022-08-23T17:09:15.069Z,0.9
2022-08-23T17:11:17.740Z,1.0
2022-08-23T17:13:16.224Z,1.2
2022-08-23T17:15:18.853Z,1.0
2022-08-23T17:17:15.499Z,1.3
2022-08-23T17:19:15.674Z,1.2
2022-08-23T17:21:15.839Z,1.0
2022-08-23T17:23:17.260Z,1.1
2022-08-23T17:25:16.818Z,1.4
2022-08-23T17:29:16.384Z,1.2
2022-08-23T17:31:18.618Z,0.9
2022-08-23T17:33:16.694Z,1.1
2022-08-23T17:37:20.386Z,1.0
2022-08-23T17:39:19.619Z,1.3
2022-08-23T17:41:17.398Z,1.2
2022-08-23T17:45:18.464Z,1.0
2022-08-23T17:47:18.451Z,1.1
2022-08-23T17:51:18.765Z,1.0
2022-08-23T17:53:18.647Z,1.2
2022-08-23T17:55:18.996Z,1.1
2022-08-23T18:05:20.053Z,1.4
2022-08-23T18:07:20.785Z,1.2
2022-08-23T18:09:20.326Z,1.3
2022-08-23T18:11:20.451Z,1.1
2022-08-23T18:13:21.085Z,1.3
2022-08-23T18:15:20.489Z,1.2
2022-08-23T18:19:22.741Z,1.3
2022-08-23T18:21:20.973Z,1.2
2022-08-23T18:27:31.240Z,1.4
2022-08-23T18:31:22.206Z,1.5
2022-08-23T18:33:25.236Z,1.4
2022-08-23T18:35:24.821Z,1.3
2022-08-23T18:37:22.214Z,1.4
2022-08-23T18:39:31.487Z,1.2
2022-08-23T18:45:23.323Z,1.7
2022-08-23T18:47:22.878Z,1.5
2022-08-23T18:51:22.987Z,1.3
2022-08-23T18:53:23.039Z,1.4
2022-08-23T18:55:23.372Z,1.7
2022-08-23T18:57:23.622Z,1.5
2022-08-23T18:59:23.493Z,1.7
2022-08-23T19:01:25.200Z,1.5
2022-08-23T19:05:23.939Z,1.6
2022-08-23T19:07:24.062Z,1.7
2022-08-23T19:09:24.041Z,1.5
2022-08-23T19:13:24.689Z,1.7
2022-08-23T19:17:25.179Z,1.6
2022-08-23T19:19:24.891Z,1.5
2022-08-23T19:21:25.583Z,1.6
2022-08-23T19:27:25.070Z,1.4
2022-08-23T19:29:25.511Z,1.6
2022-08-23T19:31:25.300Z,1.5
2022-08-23T19:33:25.130Z,1.6
2022-08-23T19:35:25.135Z,1.7
2022-08-23T19:37:25.502Z,1.5
2022-08-23T19:41:25.620Z,1.6
2022-08-23T19:43:25.869Z,1.5
2022-08-23T19:45:26.278Z,1.6
2022-08-23T19:51:27.117Z,1.9
2022-08-23T19:53:25.901Z,1.7
2022-08-23T19:55:26.593Z,1.8
2022-08-23T19:57:26.340Z,1.9
2022-08-23T19:59:29.483Z,1.6
2022-08-23T20:01:26.165Z,1.7
2022-08-23T20:03:26.345Z,1.6
2022-08-23T20:05:26.656Z,1.5
2022-08-23T20:07:26.405Z,1.7
2022-08-23T20:09:28.036Z,1.8
2022-08-23T20:15:28.138Z,1.6
2022-08-23T20:17:27.072Z,1.5
2022-08-23T20:19:26.575Z,2.0
2022-08-23T20:21:26.559Z,1.8
2022-08-23T20:23:36.479Z,1.7
2022-08-23T20:25:29.706Z,1.5
2022-08-23T20:27:30.863Z,1.6
2022-08-23T20:31:30.829Z,1.4
2022-08-23T20:33:26.854Z,1.8
2022-08-23T20:37:26.851Z,1.9
2022-08-23T20:39:26.850Z,1.8
2022-08-23T20:47:27.033Z,2.0
2022-08-23T20:49:26.877Z,1.8
2022-08-23T20:51:27.597Z,2.0
2022-08-23T20:53:27.785Z,1.8
2022-08-23T20:57:28.646Z,2.0
2022-08-23T21:01:27.213Z,1.7
2022-08-23T21:05:26.470Z,2.1
2022-08-23T21:07:27.425Z,2.0
2022-08-23T21:09:29.279Z,1.9
2022-08-23T21:13:27.207Z,1.8
2022-08-23T21:15:26.588Z,2.1
2022-08-23T21:19:28.929Z,2.3
2022-08-23T21:21:28.240Z,2.6
2022-08-23T21:23:26.654Z,2.7
2022-08-23T21:25:26.554Z,2.3
2022-08-23T21:27:26.956Z,2.4
2022-08-23T21:29:26.492Z,2.1
2022-08-23T21:33:26.591Z,1.9
2022-08-23T21:35:26.515Z,2.4
2022-08-23T21:37:27.798Z,2.0
2022-08-23T21:39:26.612Z,2.1
2022-08-23T21:43:28.669Z,2.3
2022-08-23T21:45:26.621Z,2.5
2022-08-23T21:47:27.117Z,2.1
2022-08-23T21:49:26.460Z,2.7
2022-08-23T21:51:27.192Z,2.4
2022-08-23T21:53:26.426Z,2.6
2022-08-23T21:55:34.427Z,2.2
2022-08-23T21:57:26.685Z,2.4
2022-08-23T21:59:27.167Z,2.3
2022-08-23T22:03:26.395Z,2.4
2022-08-23T22:05:26.164Z,2.5
2022-08-23T22:07:26.345Z,2.4
2022-08-23T22:09:31.194Z,2.1
2022-08-23T22:11:28.117Z,2.3
2022-08-23T22:13:27.792Z,2.5
2022-08-23T22:15:26.233Z,2.4
2022-08-23T22:17:26.354Z,2.3
2022-08-23T22:19:26.548Z,2.6
2022-08-23T22:21:26.141Z,2.3
2022-08-23T22:23:29.158Z,2.1
2022-08-23T22:25:26.351Z,2.4
2022-08-23T22:27:27.177Z,2.3
2022-08-23T22:29:26.184Z,2.4
2022-08-23T22:31:26.134Z,2.5
2022-08-23T22:35:26.111Z,2.4
2022-08-23T22:37:26.312Z,2.2
2022-08-23T22:39:28.200Z,2.5
2022-08-23T22:41:28.601Z,2.6
2022-08-23T22:45:26.002Z,2.5
2022-08-23T22:47:26.301Z,2.6
2022-08-23T22:49:26.620Z,2.3
2022-08-23T22:53:26.078Z,2.4
2022-08-23T22:55:27.440Z,2.7
2022-08-23T22:57:26.307Z,2.9
2022-08-23T22:59:27.726Z,2.5
2022-08-23T23:01:29.023Z,2.7
2022-08-23T23:03:26.323Z,2.6
2022-08-23T23:05:25.588Z,2.7
2022-08-23T23:07:35.424Z,3.0
2022-08-23T23:09:26.686Z,2.3
2022-08-23T23:11:26.667Z,2.7
2022-08-23T23:13:26.938Z,2.6
2022-08-23T23:15:25.390Z,2.9
2022-08-23T23:17:25.581Z,3.0
2022-08-23T23:19:35.483Z,3.1
2022-08-23T23:21:25.389Z,3.3
2022-08-23T23:25:25.285Z,3.4
2022-08-23T23:27:25.331Z,3.3
2022-08-23T23:33:27.266Z,3.1
2022-08-23T23:35:27.335Z,3.5
2022-08-23T23:37:25.183Z,3.3
2022-08-23T23:41:25.088Z,3.9
2022-08-23T23:45:25.414Z,3.8
2022-08-23T23:47:24.970Z,4.0
2022-08-23T23:49:33.169Z,3.7
2022-08-23T23:51:28.072Z,4.0
2022-08-23T23:53:25.345Z,3.6
2022-08-23T23:57:25.048Z,3.5
2022-08-23T23:59:25.408Z,3.9
